createdAt,value
2022-08-27T00:00:15.963Z,9.25
2022-08-27T00:02:42.995Z,8.10
2022-08-27T00:05:12.984Z,8.68
2022-08-27T00:07:39.371Z,6.40
2022-08-27T00:10:07.404Z,5.70
2022-08-27T00:12:34.279Z,4.63
2022-08-27T00:15:01.606Z,5.47
2022-08-27T00:17:27.853Z,7.30
2022-08-27T00:19:54.079Z,11.10
2022-08-27T00:22:20.379Z,4.00
2022-08-27T00:24:49.154Z,5.18
2022-08-27T00:27:15.680Z,5.13
2022-08-27T00:29:41.928Z,4.82
2022-08-27T00:32:08.886Z,6.97
2022-08-27T00:34:36.021Z,6.70
2022-08-27T00:37:03.443Z,5.55
2022-08-27T00:39:29.785Z,9.77
2022-08-27T00:41:56.177Z,10.38
2022-08-27T00:44:22.432Z,13.45
2022-08-27T00:46:50.561Z,20.80
2022-08-27T00:49:29.474Z,29.00
2022-08-27T00:51:57.962Z,35.65
2022-08-27T00:54:26.197Z,35.05
2022-08-27T00:56:52.645Z,41.10
2022-08-27T00:59:20.986Z,42.67
2022-08-27T01:02:06.021Z,40.85
2022-08-27T01:04:33.835Z,39.80
2022-08-27T01:07:01.123Z,40.80
2022-08-27T01:09:27.836Z,38.63
2022-08-27T01:11:55.349Z,36.90
2022-08-27T01:14:21.942Z,37.30
2022-08-27T01:16:51.782Z,42.13
2022-08-27T01:19:29.958Z,39.47
2022-08-27T01:22:08.431Z,41.05
2022-08-27T01:24:41.929Z,38.05
2022-08-27T01:27:13.458Z,43.70
2022-08-27T01:29:40.270Z,43.47
2022-08-27T01:32:10.037Z,41.13
2022-08-27T01:34:37.194Z,45.42
2022-08-27T01:37:05.805Z,44.35
2022-08-27T01:39:35.731Z,43.97
2022-08-27T01:42:08.011Z,43.70
2022-08-27T01:44:51.824Z,47.67
2022-08-27T01:47:18.873Z,40.75
2022-08-27T01:49:45.116Z,42.47
2022-08-27T01:52:11.480Z,41.95
2022-08-27T01:54:38.001Z,45.53
2022-08-27T01:57:04.343Z,43.78
2022-08-27T01:59:39.821Z,47.72
2022-08-27T02:02:07.212Z,43.53
2022-08-27T02:04:33.796Z,43.10
2022-08-27T02:07:00.167Z,38.78
2022-08-27T02:09:26.647Z,41.67
2022-08-27T02:11:52.890Z,43.05
2022-08-27T02:14:20.294Z,40.53
2022-08-27T02:16:52.786Z,39.67
2022-08-27T02:19:20.079Z,41.70
2022-08-27T02:21:46.567Z,42.45
2022-08-27T02:24:13.069Z,48.38
2022-08-27T02:26:39.550Z,51.35
2022-08-27T02:29:05.927Z,51.60
2022-08-27T02:31:32.228Z,53.72
2022-08-27T02:33:58.504Z,49.28
2022-08-27T02:36:25.188Z,52.80
2022-08-27T02:38:51.481Z,51.50
2022-08-27T02:41:18.126Z,50.55
2022-08-27T02:43:45.287Z,52.53
2022-08-27T02:46:12.557Z,50.95
2022-08-27T02:48:39.732Z,50.22
2022-08-27T02:51:06.223Z,51.88
2022-08-27T02:53:32.911Z,52.00
2022-08-27T02:55:59.399Z,54.17
2022-08-27T02:58:25.746Z,50.50
2022-08-27T03:00:52.008Z,51.63
2022-08-27T03:03:18.251Z,52.38
2022-08-27T03:05:45.076Z,53.20
2022-08-27T03:08:11.648Z,45.83
2022-08-27T03:10:38.119Z,52.00
2022-08-27T03:13:04.354Z,44.15
2022-08-27T03:15:30.614Z,50.40
2022-08-27T03:18:15.417Z,47.50
2022-08-27T03:20:44.376Z,42.65
2022-08-27T03:23:11.112Z,40.75
2022-08-27T03:25:38.122Z,51.75
2022-08-27T03:28:05.044Z,46.97
2022-08-27T03:30:35.829Z,47.22
2022-08-27T03:33:02.096Z,47.38
2022-08-27T03:35:28.353Z,44.38
2022-08-27T03:37:56.360Z,42.85
2022-08-27T03:40:23.123Z,44.15
2022-08-27T03:42:49.917Z,43.15
2022-08-27T03:45:16.238Z,41.85
2022-08-27T03:47:42.468Z,41.20
2022-08-27T03:50:09.028Z,39.25
2022-08-27T03:52:35.886Z,38.80
2022-08-27T03:55:03.247Z,34.03
2022-08-27T03:57:29.558Z,39.35
2022-08-27T03:59:56.851Z,32.63
2022-08-27T04:02:23.225Z,37.13
2022-08-27T04:04:49.527Z,28.13
2022-08-27T04:07:16.438Z,29.30
2022-08-27T04:09:42.931Z,28.27
2022-08-27T04:12:09.152Z,29.17
2022-08-27T04:14:36.041Z,28.13
2022-08-27T04:17:02.465Z,28.98
2022-08-27T04:19:32.954Z,30.27
2022-08-27T04:22:03.415Z,28.75
2022-08-27T04:24:33.727Z,29.08
2022-08-27T04:27:00.631Z,30.08
2022-08-27T04:29:27.056Z,27.08
2022-08-27T04:31:53.326Z,27.35
2022-08-27T04:34:19.649Z,25.17
2022-08-27T04:36:46.144Z,31.02
2022-08-27T04:39:13.050Z,30.63
2022-08-27T04:41:39.307Z,24.58
2022-08-27T04:44:07.172Z,27.20
2022-08-27T04:46:35.409Z,26.33
2022-08-27T04:49:03.987Z,24.30
2022-08-27T04:51:37.124Z,25.00
2022-08-27T04:54:06.551Z,24.75
2022-08-27T04:56:33.517Z,21.15
2022-08-27T04:59:01.066Z,20.88
2022-08-27T05:01:28.690Z,16.92
2022-08-27T05:03:55.134Z,18.40
2022-08-27T05:06:21.866Z,22.63
2022-08-27T05:08:49.083Z,15.32
2022-08-27T05:11:16.402Z,15.20
2022-08-27T05:13:43.376Z,14.02
2022-08-27T05:16:11.199Z,15.13
2022-08-27T05:18:41.708Z,15.45
2022-08-27T05:21:18.984Z,15.65
2022-08-27T05:23:45.225Z,13.63
2022-08-27T05:26:11.476Z,12.65
2022-08-27T05:28:37.712Z,14.52
2022-08-27T05:31:05.412Z,12.68
2022-08-27T05:33:31.991Z,12.32
2022-08-27T05:35:59.102Z,15.55
2022-08-27T05:38:27.019Z,13.18
2022-08-27T05:41:12.209Z,12.85
2022-08-27T05:43:39.964Z,12.40
2022-08-27T05:46:07.512Z,14.43
2022-08-27T05:48:36.538Z,12.88
2022-08-27T05:51:10.170Z,13.57
2022-08-27T05:53:36.951Z,12.60
2022-08-27T05:56:03.570Z,16.40
2022-08-27T05:58:48.582Z,15.32
2022-08-27T06:01:15.574Z,13.88
2022-08-27T06:03:41.784Z,12.25
2022-08-27T06:06:09.357Z,14.00
2022-08-27T06:08:36.009Z,19.70
2022-08-27T06:11:05.210Z,13.45
2022-08-27T06:13:32.698Z,13.50
2022-08-27T06:16:02.853Z,15.88
2022-08-27T06:18:31.199Z,15.75
2022-08-27T06:20:57.814Z,15.98
2022-08-27T06:23:27.909Z,16.77
2022-08-27T06:25:54.925Z,16.58
2022-08-27T06:28:21.961Z,16.75
2022-08-27T06:30:48.350Z,13.43
2022-08-27T06:33:14.902Z,13.07
2022-08-27T06:35:41.299Z,12.13
2022-08-27T06:38:07.931Z,14.27
2022-08-27T06:40:34.854Z,13.55
2022-08-27T06:43:01.131Z,13.30
2022-08-27T06:45:27.395Z,14.50
2022-08-27T06:47:54.310Z,14.15
2022-08-27T06:50:23.250Z,16.35
2022-08-27T06:52:53.036Z,13.98
2022-08-27T06:55:19.293Z,14.70
2022-08-27T06:57:45.579Z,10.93
2022-08-27T07:00:12.631Z,12.65
2022-08-27T07:02:39.165Z,12.88
2022-08-27T07:05:06.315Z,10.40
2022-08-27T07:07:38.158Z,10.98
2022-08-27T07:10:08.526Z,11.25
2022-08-27T07:12:34.803Z,12.43
2022-08-27T07:15:01.135Z,12.73
2022-08-27T07:17:27.380Z,11.73
2022-08-27T07:19:54.454Z,10.20
2022-08-27T07:22:20.793Z,11.65
2022-08-27T07:24:47.055Z,13.45
2022-08-27T07:27:13.306Z,14.75
2022-08-27T07:29:39.615Z,14.65
2022-08-27T07:32:06.619Z,12.88
2022-08-27T07:34:32.943Z,9.38
2022-08-27T07:36:59.194Z,12.73
2022-08-27T07:39:25.460Z,10.57
2022-08-27T07:42:20.834Z,11.07
2022-08-27T07:44:47.652Z,12.25
2022-08-27T07:47:13.936Z,11.38
2022-08-27T07:49:40.213Z,10.93
2022-08-27T07:52:06.555Z,9.57
2022-08-27T07:54:32.988Z,11.15
2022-08-27T07:56:59.245Z,13.85
2022-08-27T07:59:27.104Z,10.55
2022-08-27T08:01:54.332Z,10.95
2022-08-27T08:04:22.757Z,12.30
2022-08-27T08:06:49.648Z,9.40
2022-08-27T08:09:15.944Z,9.75
2022-08-27T08:11:42.301Z,11.93
2022-08-27T08:14:08.571Z,10.52
2022-08-27T08:16:34.920Z,13.18
2022-08-27T08:19:01.886Z,15.48
2022-08-27T08:21:28.164Z,17.80
2022-08-27T08:23:54.551Z,18.92
2022-08-27T08:26:21.059Z,17.50
2022-08-27T08:28:47.659Z,17.52
2022-08-27T08:31:13.936Z,21.23
2022-08-27T08:33:40.291Z,18.80
2022-08-27T08:36:09.758Z,19.42
2022-08-27T08:38:37.521Z,19.02
2022-08-27T08:41:05.294Z,18.67
2022-08-27T08:43:37.776Z,18.08
2022-08-27T08:46:24.643Z,16.85
2022-08-27T08:48:52.781Z,19.45
2022-08-27T08:51:23.341Z,18.65
2022-08-27T08:54:02.288Z,21.45
2022-08-27T08:56:30.959Z,19.98
2022-08-27T08:59:00.199Z,18.80
2022-08-27T09:01:27.197Z,18.00
2022-08-27T09:03:55.148Z,20.45
2022-08-27T09:06:26.878Z,18.90
2022-08-27T09:08:53.169Z,21.40
2022-08-27T09:11:39.458Z,18.90
2022-08-27T09:14:30.336Z,17.05
2022-08-27T09:16:59.495Z,14.50
2022-08-27T09:19:26.886Z,15.77
2022-08-27T09:22:00.265Z,14.23
2022-08-27T09:24:35.578Z,15.77
2022-08-27T09:27:02.204Z,16.73
2022-08-27T09:29:28.957Z,15.50
2022-08-27T09:31:59.607Z,13.55
2022-08-27T09:34:27.210Z,13.03
2022-08-27T09:36:53.524Z,12.95
2022-08-27T09:39:20.683Z,12.88
2022-08-27T09:41:47.955Z,13.40
2022-08-27T09:44:18.526Z,14.60
2022-08-27T09:46:55.360Z,11.43
2022-08-27T09:49:22.186Z,12.35
2022-08-27T09:51:48.675Z,13.32
2022-08-27T09:54:44.573Z,10.98
2022-08-27T09:57:12.605Z,12.90
2022-08-27T09:59:49.782Z,12.55
2022-08-27T10:02:21.808Z,12.35
2022-08-27T10:04:52.684Z,9.55
2022-08-27T10:07:19.167Z,9.63
2022-08-27T10:09:51.322Z,9.82
2022-08-27T10:12:36.854Z,11.20
2022-08-27T10:15:03.926Z,9.80
2022-08-27T10:17:38.086Z,12.18
2022-08-27T10:20:30.125Z,10.57
2022-08-27T10:23:03.062Z,9.93
2022-08-27T10:25:35.499Z,10.52
2022-08-27T10:28:19.417Z,10.07
2022-08-27T10:31:05.787Z,8.95
2022-08-27T10:33:49.507Z,9.20
2022-08-27T10:36:16.687Z,9.00
2022-08-27T10:38:45.054Z,8.98
2022-08-27T10:41:14.765Z,8.20
2022-08-27T10:43:43.913Z,9.75
2022-08-27T10:46:32.083Z,7.95
2022-08-27T10:49:06.565Z,8.32
2022-08-27T10:51:48.530Z,7.53
2022-08-27T10:54:38.534Z,8.25
2022-08-27T10:57:53.204Z,12.13
2022-08-27T11:00:21.731Z,7.80
2022-08-27T11:03:05.084Z,6.45
2022-08-27T11:05:36.895Z,12.82
2022-08-27T11:08:21.295Z,7.35
2022-08-27T11:10:48.714Z,5.80
2022-08-27T11:13:18.968Z,7.28
2022-08-27T11:15:48.063Z,8.27
2022-08-27T11:18:21.883Z,10.02
2022-08-27T11:20:53.587Z,8.43
2022-08-27T11:23:23.292Z,8.38
2022-08-27T11:26:02.037Z,8.23
2022-08-27T11:28:31.497Z,8.73
2022-08-27T11:31:01.317Z,8.68
2022-08-27T11:33:33.259Z,8.50
2022-08-27T11:36:02.269Z,12.40
2022-08-27T11:38:37.677Z,12.95
2022-08-27T11:41:44.594Z,9.63
2022-08-27T11:44:13.010Z,8.27
2022-08-27T11:46:44.466Z,10.85
2022-08-27T11:51:38.485Z,8.10
2022-08-27T11:54:08.881Z,10.30
2022-08-27T11:56:42.412Z,10.80
2022-08-27T11:59:31.867Z,10.43
2022-08-27T12:02:10.317Z,11.80
2022-08-27T12:04:38.534Z,9.05
2022-08-27T12:07:27.136Z,7.68
2022-08-27T12:09:56.161Z,8.13
2022-08-27T12:12:25.213Z,7.03
2022-08-27T12:14:57.758Z,8.30
2022-08-27T12:17:35.838Z,10.13
2022-08-27T12:20:05.922Z,7.30
2022-08-27T12:23:03.233Z,8.77
2022-08-27T12:25:29.538Z,8.65
2022-08-27T12:28:03.259Z,9.82
2022-08-27T12:30:31.864Z,11.63
2022-08-27T12:32:59.360Z,8.93
2022-08-27T12:35:40.490Z,7.10
2022-08-27T12:38:16.089Z,9.05
2022-08-27T12:40:54.156Z,7.97
2022-08-27T12:43:20.475Z,7.28
2022-08-27T12:45:51.408Z,7.90
2022-08-27T12:48:21.840Z,13.60
2022-08-27T12:50:52.968Z,10.93
2022-08-27T12:53:35.020Z,9.32
2022-08-27T12:56:07.501Z,9.48
2022-08-27T12:58:36.722Z,9.98
2022-08-27T13:01:24.467Z,15.27
2022-08-27T13:03:52.897Z,8.35
2022-08-27T13:06:20.997Z,9.88
2022-08-27T13:08:52.879Z,9.50
2022-08-27T13:13:45.799Z,11.30
2022-08-27T13:16:12.235Z,11.38
2022-08-27T13:18:39.664Z,13.63
2022-08-27T13:21:16.765Z,11.45
2022-08-27T13:23:48.860Z,10.00
2022-08-27T13:26:21.446Z,9.32
2022-08-27T13:28:49.516Z,9.35
2022-08-27T13:31:16.590Z,9.13
2022-08-27T13:33:44.012Z,9.15
2022-08-27T13:36:10.376Z,8.77
2022-08-27T13:38:43.735Z,9.82
2022-08-27T13:41:33.313Z,8.68
2022-08-27T13:44:06.309Z,8.13
2022-08-27T13:46:33.749Z,9.02
2022-08-27T13:49:00.330Z,7.93
2022-08-27T13:51:28.734Z,7.78
2022-08-27T13:54:13.053Z,10.85
2022-08-27T13:56:55.675Z,9.30
2022-08-27T13:59:24.064Z,10.00
2022-08-27T14:02:09.426Z,9.65
2022-08-27T14:04:35.828Z,7.78
2022-08-27T14:07:09.938Z,8.23
2022-08-27T14:09:41.185Z,8.20
2022-08-27T14:12:08.666Z,12.75
2022-08-27T14:14:39.360Z,8.00
2022-08-27T14:17:08.725Z,8.43
2022-08-27T14:19:37.081Z,7.18
2022-08-27T14:22:03.551Z,7.43
2022-08-27T14:24:29.905Z,6.57
2022-08-27T14:27:03.904Z,6.38
2022-08-27T14:29:30.152Z,6.97
2022-08-27T14:31:56.421Z,5.93
2022-08-27T14:34:22.744Z,7.85
2022-08-27T14:36:52.897Z,6.30
2022-08-27T14:39:22.007Z,6.80
2022-08-27T14:41:52.898Z,6.75
2022-08-27T14:44:19.291Z,7.22
2022-08-27T14:46:45.674Z,7.55
2022-08-27T14:49:16.089Z,5.30
2022-08-27T14:51:44.278Z,6.50
2022-08-27T14:54:10.535Z,7.45
2022-08-27T14:56:36.779Z,6.03
2022-08-27T14:59:03.180Z,6.30
2022-08-27T15:01:29.524Z,5.45
2022-08-27T15:03:56.657Z,5.63
2022-08-27T15:06:23.889Z,5.80
2022-08-27T15:08:50.624Z,7.68
2022-08-27T15:11:23.512Z,7.82
2022-08-27T15:13:50.952Z,11.60
2022-08-27T15:16:26.672Z,7.60
2022-08-27T15:18:53.716Z,5.72
2022-08-27T15:21:27.821Z,10.02
2022-08-27T15:23:58.172Z,10.52
2022-08-27T15:26:24.573Z,8.23
2022-08-27T15:28:50.869Z,5.85
2022-08-27T15:31:18.212Z,5.90
2022-08-27T15:33:45.424Z,5.88
2022-08-27T15:36:12.228Z,5.10
2022-08-27T15:38:38.496Z,6.40
2022-08-27T15:41:04.907Z,6.53
2022-08-27T15:43:31.330Z,7.32
2022-08-27T15:45:58.391Z,5.88
2022-08-27T15:48:24.981Z,6.43
2022-08-27T15:50:51.289Z,7.30
2022-08-27T15:53:18.572Z,5.45
2022-08-27T15:55:45.593Z,4.38
2022-08-27T15:58:12.970Z,6.75
2022-08-27T16:00:39.863Z,7.80
2022-08-27T16:03:08.228Z,6.20
2022-08-27T16:05:35.634Z,4.97
2022-08-27T16:08:02.392Z,4.75
2022-08-27T16:10:28.759Z,7.88
2022-08-27T16:12:55.070Z,4.32
2022-08-27T16:15:21.343Z,6.47
2022-08-27T16:17:49.072Z,4.82
2022-08-27T16:20:15.542Z,6.32
2022-08-27T16:22:41.905Z,4.97
2022-08-27T16:25:08.428Z,5.18
2022-08-27T16:27:34.800Z,8.10
2022-08-27T16:30:01.135Z,6.55
2022-08-27T16:32:28.820Z,7.03
2022-08-27T16:34:56.105Z,5.35
2022-08-27T16:37:22.997Z,4.70
2022-08-27T16:39:49.270Z,7.88
2022-08-27T16:42:15.527Z,4.50
2022-08-27T16:44:42.185Z,4.97
2022-08-27T16:47:08.430Z,4.82
2022-08-27T16:49:53.288Z,4.43
2022-08-27T16:52:20.874Z,3.95
2022-08-27T16:54:47.155Z,7.68
2022-08-27T16:57:13.407Z,6.60
2022-08-27T16:59:39.715Z,4.32
2022-08-27T17:02:06.560Z,4.60
2022-08-27T17:04:38.004Z,5.25
2022-08-27T17:07:08.090Z,3.60
2022-08-27T17:09:36.305Z,4.90
2022-08-27T17:12:04.420Z,6.88
2022-08-27T17:14:32.254Z,3.15
2022-08-27T17:16:58.481Z,7.75
2022-08-27T17:19:25.946Z,4.90
2022-08-27T17:21:54.635Z,8.02
2022-08-27T17:24:20.970Z,5.93
2022-08-27T17:26:47.229Z,4.07
2022-08-27T17:29:13.451Z,2.75
2022-08-27T17:31:41.278Z,5.38
2022-08-27T17:34:12.065Z,5.03
2022-08-27T17:36:38.343Z,5.40
2022-08-27T17:39:04.582Z,5.28
2022-08-27T17:41:34.048Z,3.88
2022-08-27T17:44:03.335Z,8.95
2022-08-27T17:46:29.693Z,5.38
2022-08-27T17:48:55.932Z,6.28
2022-08-27T17:51:22.412Z,5.70
2022-08-27T17:53:50.058Z,5.43
2022-08-27T17:56:20.816Z,4.13
2022-08-27T17:58:47.922Z,4.15
2022-08-27T18:01:15.508Z,4.00
2022-08-27T18:03:44.928Z,6.00
2022-08-27T18:06:14.933Z,5.70
2022-08-27T18:08:41.319Z,5.38
2022-08-27T18:11:07.612Z,4.50
2022-08-27T18:13:37.022Z,3.22
2022-08-27T18:16:04.308Z,3.00
2022-08-27T18:18:30.754Z,5.90
2022-08-27T18:20:57.689Z,4.47
2022-08-27T18:23:24.330Z,4.43
2022-08-27T18:25:51.489Z,5.78
2022-08-27T18:28:18.460Z,5.28
2022-08-27T18:30:45.311Z,3.80
2022-08-27T18:33:12.039Z,3.92
2022-08-27T18:35:40.893Z,4.15
2022-08-27T18:38:07.536Z,6.03
2022-08-27T18:40:39.091Z,3.85
2022-08-27T18:45:33.183Z,4.60
2022-08-27T18:47:59.956Z,4.93
2022-08-27T18:50:26.670Z,3.53
2022-08-27T18:52:54.073Z,8.77
2022-08-27T18:55:22.603Z,5.47
2022-08-27T18:57:49.018Z,6.68
2022-08-27T19:00:16.038Z,7.18
2022-08-27T19:02:42.705Z,5.57
2022-08-27T19:05:09.658Z,4.93
2022-08-27T19:07:36.107Z,4.57
2022-08-27T19:10:03.824Z,4.90
2022-08-27T19:12:31.218Z,4.03
2022-08-27T19:14:58.867Z,5.40
2022-08-27T19:17:32.694Z,3.72
2022-08-27T19:19:59.109Z,5.10
2022-08-27T19:22:25.696Z,6.57
2022-08-27T19:24:52.314Z,4.03
2022-08-27T19:27:23.080Z,7.30
2022-08-27T19:29:51.651Z,7.93
2022-08-27T19:32:18.680Z,4.38
2022-08-27T19:34:44.894Z,6.60
2022-08-27T19:37:16.395Z,4.97
2022-08-27T19:42:09.620Z,5.18
2022-08-27T19:44:35.929Z,3.95
2022-08-27T19:47:02.239Z,4.72
2022-08-27T19:49:28.479Z,4.43
2022-08-27T19:51:54.690Z,3.17
2022-08-27T19:54:20.948Z,6.63
2022-08-27T19:56:47.330Z,4.75
2022-08-27T19:59:21.415Z,4.03
2022-08-27T20:01:48.038Z,4.28
2022-08-27T20:04:14.429Z,4.82
2022-08-27T20:06:40.769Z,5.22
2022-08-27T20:09:09.651Z,4.05
2022-08-27T20:11:35.905Z,3.42
2022-08-27T20:14:02.242Z,5.25
2022-08-27T20:16:28.606Z,4.50
2022-08-27T20:18:59.638Z,5.13
2022-08-27T20:21:27.127Z,6.65
2022-08-27T20:23:53.739Z,4.85
2022-08-27T20:26:21.626Z,6.32
2022-08-27T20:28:48.072Z,3.63
2022-08-27T20:31:15.286Z,4.00
2022-08-27T20:33:41.647Z,5.05
2022-08-27T20:36:08.523Z,4.95
2022-08-27T20:38:34.857Z,9.13
2022-08-27T20:41:01.331Z,5.05
2022-08-27T20:43:28.399Z,6.68
2022-08-27T20:45:54.679Z,4.07
2022-08-27T20:48:21.118Z,6.15
2022-08-27T20:50:47.447Z,4.97
2022-08-27T20:53:13.695Z,3.60
2022-08-27T20:55:40.026Z,4.65
2022-08-27T20:58:25.133Z,3.63
2022-08-27T21:00:52.536Z,4.78
2022-08-27T21:03:18.854Z,3.60
2022-08-27T21:05:48.362Z,4.45
2022-08-27T21:08:15.902Z,5.82
2022-08-27T21:10:49.831Z,8.20
2022-08-27T21:13:16.455Z,7.30
2022-08-27T21:15:42.727Z,4.43
2022-08-27T21:18:09.139Z,4.28
2022-08-27T21:20:35.443Z,4.05
2022-08-27T21:23:01.739Z,5.15
2022-08-27T21:25:28.150Z,5.63
2022-08-27T21:27:55.000Z,5.22
2022-08-27T21:30:21.574Z,3.58
2022-08-27T21:32:48.254Z,5.50
2022-08-27T21:35:14.553Z,3.28
2022-08-27T21:37:41.776Z,6.57
2022-08-27T21:40:08.816Z,4.22
2022-08-27T21:42:35.560Z,6.85
2022-08-27T21:45:02.363Z,3.92
2022-08-27T21:47:29.996Z,5.68
2022-08-27T21:49:56.288Z,2.65
2022-08-27T21:52:23.683Z,21.17
2022-08-27T21:54:49.955Z,3.53
2022-08-27T21:57:16.207Z,2.95
2022-08-27T21:59:44.273Z,5.28
2022-08-27T22:02:35.879Z,3.65
2022-08-27T22:04:56.996Z,3.25
2022-08-27T22:07:24.184Z,4.82
2022-08-27T22:09:50.445Z,4.15
2022-08-27T22:12:16.684Z,4.93
2022-08-27T22:14:42.997Z,6.20
2022-08-27T22:17:09.543Z,4.57
2022-08-27T22:19:35.881Z,7.75
2022-08-27T22:22:02.133Z,4.63
2022-08-27T22:24:28.368Z,3.08
2022-08-27T22:26:54.609Z,2.97
2022-08-27T22:29:21.067Z,3.75
2022-08-27T22:31:47.445Z,5.53
2022-08-27T22:34:15.036Z,5.90
2022-08-27T22:36:41.950Z,4.30
2022-08-27T22:39:08.295Z,5.20
2022-08-27T22:41:35.234Z,5.60
2022-08-27T22:44:01.959Z,5.53
2022-08-27T22:46:28.360Z,4.55
2022-08-27T22:48:54.595Z,6.20
2022-08-27T22:51:21.046Z,4.13
2022-08-27T22:53:47.377Z,4.00
2022-08-27T22:56:14.123Z,5.15
2022-08-27T22:58:41.077Z,4.57
2022-08-27T23:01:12.424Z,2.70
2022-08-27T23:03:38.703Z,7.55
2022-08-27T23:06:05.084Z,4.50
2022-08-27T23:08:31.806Z,5.40
2022-08-27T23:10:58.088Z,4.15
2022-08-27T23:13:24.413Z,5.28
2022-08-27T23:15:50.699Z,5.00
2022-08-27T23:18:17.001Z,3.95
2022-08-27T23:20:43.231Z,7.38
2022-08-27T23:23:10.082Z,5.47
2022-08-27T23:25:55.721Z,6.03
2022-08-27T23:28:23.384Z,5.90
2022-08-27T23:30:50.021Z,4.72
2022-08-27T23:33:16.517Z,4.07
2022-08-27T23:35:47.550Z,5.07
2022-08-27T23:38:15.204Z,5.65
2022-08-27T23:40:41.914Z,5.68
2022-08-27T23:43:08.181Z,5.65
2022-08-27T23:45:38.395Z,5.40
2022-08-27T23:48:07.148Z,5.75
2022-08-27T23:50:34.102Z,3.90
2022-08-27T23:53:01.607Z,4.28
2022-08-27T23:55:27.895Z,3.60
2022-08-27T23:57:57.413Z,4.53
